createdAt,value
2023-05-25T00:01:02.501Z,506.00
2023-05-25T00:01:55.069Z,507.00
2023-05-25T00:02:54.088Z,508.00
2023-05-25T00:03:55.092Z,509.00
2023-05-25T00:04:54.995Z,511.00
2023-05-25T00:05:53.994Z,506.00
2023-05-25T00:06:54.969Z,505.00
2023-05-25T00:07:54.966Z,509.00
2023-05-25T00:08:54.985Z,508.00
2023-05-25T00:09:53.967Z,506.00
2023-05-25T00:10:53.941Z,505.00
2023-05-25T00:11:54.959Z,503.00
2023-05-25T00:12:54.940Z,510.00
2023-05-25T00:13:53.962Z,500.00
2023-05-25T00:14:54.921Z,504.00
2023-05-25T00:15:54.904Z,508.00
2023-05-25T00:16:53.948Z,503.00
2023-05-25T00:17:54.973Z,502.00
2023-05-25T00:18:54.908Z,506.00
2023-05-25T00:19:54.923Z,510.00
2023-05-25T00:20:53.861Z,507.00
2023-05-25T00:21:54.869Z,507.00
2023-05-25T00:22:53.855Z,509.00
2023-05-25T00:23:54.852Z,507.00
2023-05-25T00:24:54.364Z,504.00
2023-05-25T00:25:54.845Z,502.00
2023-05-25T00:26:53.838Z,503.00
2023-05-25T00:27:54.824Z,509.00
2023-05-25T00:28:54.839Z,508.00
2023-05-25T00:29:54.865Z,507.00
2023-05-25T00:30:54.849Z,501.00
2023-05-25T00:31:53.827Z,504.00
2023-05-25T00:32:53.923Z,505.00
2023-05-25T00:33:53.933Z,510.00
2023-05-25T00:34:54.966Z,511.00
2023-05-25T00:35:55.023Z,506.00
2023-05-25T00:36:55.052Z,505.00
2023-05-25T00:37:55.111Z,504.00
2023-05-25T00:38:55.173Z,505.00
2023-05-25T00:39:54.201Z,507.00
2023-05-25T00:40:55.302Z,502.00
2023-05-25T00:41:54.297Z,500.00
2023-05-25T00:42:55.348Z,506.00
2023-05-25T00:43:55.407Z,506.00
2023-05-25T00:44:55.446Z,503.00
2023-05-25T00:45:55.519Z,507.00
2023-05-25T00:46:55.583Z,506.00
2023-05-25T00:47:55.625Z,506.00
2023-05-25T00:48:55.651Z,502.00
2023-05-25T00:49:55.656Z,503.00
2023-05-25T00:50:55.711Z,504.00
2023-05-25T00:51:54.745Z,507.00
2023-05-25T00:52:55.786Z,513.00
2023-05-25T00:53:55.850Z,510.00
2023-05-25T00:54:55.881Z,510.00
2023-05-25T00:55:54.923Z,511.00
2023-05-25T00:56:54.965Z,511.00
2023-05-25T00:57:54.997Z,509.00
2023-05-25T00:58:56.047Z,512.00
2023-05-25T00:59:55.099Z,510.00
2023-05-25T01:00:56.142Z,515.00
2023-05-25T01:01:56.228Z,510.00
2023-05-25T01:02:56.313Z,508.00
2023-05-25T01:03:56.370Z,507.00
2023-05-25T01:04:56.320Z,504.00
2023-05-25T01:05:56.361Z,510.00
2023-05-25T01:06:56.393Z,505.00
2023-05-25T01:07:56.435Z,508.00
2023-05-25T01:08:56.494Z,506.00
2023-05-25T01:09:56.514Z,512.00
2023-05-25T01:10:55.562Z,506.00
2023-05-25T01:11:56.607Z,505.00
2023-05-25T01:12:55.653Z,508.00
2023-05-25T01:13:56.708Z,509.00
2023-05-25T01:14:56.755Z,506.00
2023-05-25T01:15:55.795Z,500.00
2023-05-25T01:16:56.850Z,505.00
2023-05-25T01:17:55.990Z,500.00
2023-05-25T01:18:56.977Z,503.00
2023-05-25T01:20:56.031Z,515.00
2023-05-25T01:21:55.992Z,513.00
2023-05-25T01:22:56.991Z,504.00
2023-05-25T01:23:55.980Z,509.00
2023-05-25T01:24:57.001Z,504.00
2023-05-25T01:25:56.966Z,503.00
2023-05-25T01:26:55.958Z,504.00
2023-05-25T01:27:56.945Z,508.00
2023-05-25T01:28:56.951Z,504.00
2023-05-25T01:29:56.933Z,507.00
2023-05-25T01:30:56.957Z,505.00
2023-05-25T01:31:56.974Z,504.00
2023-05-25T01:32:55.962Z,507.00
2023-05-25T01:33:56.946Z,511.00
2023-05-25T01:34:56.922Z,500.00
2023-05-25T01:35:56.894Z,507.00
2023-05-25T01:36:56.913Z,507.00
2023-05-25T01:37:56.891Z,505.00
2023-05-25T01:38:56.869Z,504.00
2023-05-25T01:39:55.874Z,500.00
2023-05-25T01:40:55.863Z,509.00
2023-05-25T01:41:56.862Z,505.00
2023-05-25T01:42:55.849Z,501.00
2023-05-25T01:43:56.849Z,500.00
2023-05-25T01:44:56.834Z,505.00
2023-05-25T01:45:55.856Z,503.00
2023-05-25T01:46:55.825Z,505.00
2023-05-25T01:47:55.854Z,509.00
2023-05-25T01:48:56.955Z,506.00
2023-05-25T01:49:55.915Z,507.00
2023-05-25T01:50:56.957Z,506.00
2023-05-25T01:51:57.032Z,507.00
2023-05-25T01:52:57.047Z,507.00
2023-05-25T01:53:57.816Z,507.00
2023-05-25T01:54:57.157Z,508.00
2023-05-25T01:55:56.201Z,501.00
2023-05-25T01:56:56.254Z,503.00
2023-05-25T01:57:56.301Z,506.00
2023-05-25T01:58:57.360Z,505.00
2023-05-25T01:59:56.412Z,506.00
2023-05-25T02:00:56.478Z,506.00
2023-05-25T02:01:56.601Z,506.00
2023-05-25T02:02:57.593Z,504.00
2023-05-25T02:03:57.614Z,509.00
2023-05-25T02:04:56.657Z,509.00
2023-05-25T02:05:56.732Z,510.00
2023-05-25T02:06:57.774Z,506.00
2023-05-25T02:07:56.836Z,507.00
2023-05-25T02:08:56.893Z,503.00
2023-05-25T02:09:57.964Z,510.00
2023-05-25T02:10:58.021Z,508.00
2023-05-25T02:11:57.084Z,502.00
2023-05-25T02:12:58.141Z,503.00
2023-05-25T02:13:58.199Z,505.00
2023-05-25T02:14:57.268Z,507.00
2023-05-25T02:15:58.361Z,504.00
2023-05-25T02:16:58.399Z,509.00
2023-05-25T02:17:58.497Z,501.00
2023-05-25T02:18:58.509Z,504.00
2023-05-25T02:19:57.610Z,505.00
2023-05-25T02:20:58.754Z,507.00
2023-05-25T02:21:58.741Z,504.00
2023-05-25T02:22:57.771Z,501.00
2023-05-25T02:23:58.872Z,509.00
2023-05-25T02:24:57.898Z,505.00
2023-05-25T02:25:57.950Z,505.00
2023-05-25T02:26:58.993Z,504.00
2023-05-25T02:27:59.068Z,505.00
2023-05-25T02:28:59.121Z,508.00
2023-05-25T02:29:59.172Z,501.00
2023-05-25T02:30:59.237Z,506.00
2023-05-25T02:31:59.295Z,506.00
2023-05-25T02:32:58.398Z,509.00
2023-05-25T02:33:58.399Z,507.00
2023-05-25T02:34:58.483Z,505.00
2023-05-25T02:35:59.531Z,507.00
2023-05-25T02:36:58.600Z,509.00
2023-05-25T02:37:58.739Z,503.00
2023-05-25T02:38:58.811Z,505.00
2023-05-25T02:39:59.780Z,503.00
2023-05-25T02:40:59.856Z,505.00
2023-05-25T02:41:59.903Z,507.00
2023-05-25T02:42:59.960Z,504.00
2023-05-25T02:44:00.041Z,507.00
2023-05-25T02:45:00.142Z,509.00
2023-05-25T02:45:59.180Z,501.00
2023-05-25T02:46:59.303Z,504.00
2023-05-25T02:48:00.375Z,502.00
2023-05-25T02:49:00.345Z,507.00
2023-05-25T02:50:00.452Z,504.00
2023-05-25T02:51:00.471Z,509.00
2023-05-25T02:52:00.543Z,509.00
2023-05-25T02:53:00.634Z,506.00
2023-05-25T02:54:00.682Z,506.00
2023-05-25T02:55:00.739Z,507.00
2023-05-25T02:55:59.768Z,506.00
2023-05-25T02:57:00.844Z,508.00
2023-05-25T02:57:59.926Z,505.00
2023-05-25T02:59:00.967Z,507.00
2023-05-25T03:00:01.040Z,507.00
2023-05-25T03:01:01.142Z,500.00
2023-05-25T03:02:01.138Z,509.00
2023-05-25T03:03:01.354Z,507.00
2023-05-25T03:04:00.475Z,507.00
2023-05-25T03:05:04.032Z,508.00
2023-05-25T03:06:01.296Z,508.00
2023-05-25T03:07:01.297Z,508.00
2023-05-25T03:08:01.336Z,509.00
2023-05-25T03:09:00.322Z,509.00
2023-05-25T03:10:01.293Z,507.00
2023-05-25T03:11:01.282Z,510.00
2023-05-25T03:12:00.267Z,506.00
2023-05-25T03:13:01.254Z,508.00
2023-05-25T03:14:01.277Z,504.00
2023-05-25T03:15:00.249Z,506.00
2023-05-25T03:16:01.246Z,504.00
2023-05-25T03:17:01.273Z,504.00
2023-05-25T03:18:01.335Z,502.00
2023-05-25T03:19:01.232Z,506.00
2023-05-25T03:20:00.404Z,500.00
2023-05-25T03:21:01.209Z,503.00
2023-05-25T03:22:00.198Z,511.00
2023-05-25T03:23:01.193Z,505.00
2023-05-25T03:24:00.207Z,509.00
2023-05-25T03:25:00.220Z,503.00
2023-05-25T03:26:01.197Z,503.00
2023-05-25T03:27:00.188Z,513.00
2023-05-25T03:28:01.248Z,505.00
2023-05-25T03:29:01.311Z,506.00
2023-05-25T03:30:01.383Z,505.00
2023-05-25T03:31:00.442Z,507.00
2023-05-25T03:32:00.651Z,509.00
2023-05-25T03:33:01.658Z,507.00
2023-05-25T03:34:00.627Z,508.00
2023-05-25T03:35:00.694Z,504.00
2023-05-25T03:36:00.743Z,507.00
2023-05-25T03:37:00.803Z,505.00
2023-05-25T03:38:01.873Z,507.00
2023-05-25T03:39:01.933Z,509.00
2023-05-25T03:40:01.987Z,504.00
2023-05-25T03:41:02.085Z,506.00
2023-05-25T03:42:02.116Z,511.00
2023-05-25T03:43:02.157Z,505.00
2023-05-25T03:44:01.207Z,503.00
2023-05-25T03:45:01.273Z,507.00
2023-05-25T03:46:02.345Z,506.00
2023-05-25T03:47:01.392Z,506.00
2023-05-25T03:48:01.451Z,505.00
2023-05-25T03:49:02.467Z,501.00
2023-05-25T03:50:02.526Z,509.00
2023-05-25T03:51:02.590Z,508.00
2023-05-25T03:52:02.665Z,501.00
2023-05-25T03:53:02.725Z,500.00
2023-05-25T03:54:02.792Z,511.00
2023-05-25T03:55:01.840Z,503.00
2023-05-25T03:56:02.909Z,508.00
2023-05-25T03:57:02.985Z,504.00
2023-05-25T03:58:02.048Z,507.00
2023-05-25T03:59:03.096Z,506.00
2023-05-25T04:00:03.166Z,508.00
2023-05-25T04:01:05.314Z,509.00
2023-05-25T04:02:03.192Z,510.00
2023-05-25T04:03:02.260Z,514.00
2023-05-25T04:04:02.313Z,508.00
2023-05-25T04:05:03.192Z,511.00
2023-05-25T04:06:02.200Z,507.00
2023-05-25T04:07:02.162Z,503.00
2023-05-25T04:08:03.153Z,507.00
2023-05-25T04:09:03.141Z,509.00
2023-05-25T04:10:03.140Z,508.00
2023-05-25T04:11:03.127Z,501.00
2023-05-25T04:12:02.133Z,509.00
2023-05-25T04:13:03.149Z,506.00
2023-05-25T04:14:02.145Z,508.00
2023-05-25T04:15:02.207Z,502.00
2023-05-25T04:16:02.173Z,507.00
2023-05-25T04:17:02.102Z,506.00
2023-05-25T04:18:03.187Z,509.00
2023-05-25T04:19:02.107Z,505.00
2023-05-25T04:20:03.112Z,502.00
2023-05-25T04:21:02.069Z,511.00
2023-05-25T04:22:03.054Z,506.00
2023-05-25T04:23:03.050Z,509.00
2023-05-25T04:24:03.055Z,511.00
2023-05-25T04:25:03.041Z,506.00
2023-05-25T04:26:03.025Z,510.00
2023-05-25T04:27:03.022Z,507.00
2023-05-25T04:28:03.021Z,503.00
2023-05-25T04:29:03.061Z,508.00
2023-05-25T04:30:03.084Z,504.00
2023-05-25T04:31:02.117Z,505.00
2023-05-25T04:32:02.263Z,508.00
2023-05-25T04:33:02.202Z,511.00
2023-05-25T04:34:02.236Z,510.00
2023-05-25T04:35:03.332Z,509.00
2023-05-25T04:36:02.309Z,509.00
2023-05-25T04:37:03.358Z,502.00
2023-05-25T04:38:02.379Z,509.00
2023-05-25T04:39:03.417Z,510.00
2023-05-25T04:40:02.473Z,509.00
2023-05-25T04:41:03.461Z,509.00
2023-05-25T04:42:03.468Z,507.00
2023-05-25T04:43:03.574Z,507.00
2023-05-25T04:45:02.562Z,511.00
2023-05-25T04:46:03.558Z,507.00
2023-05-25T04:47:02.500Z,503.00
2023-05-25T04:48:02.514Z,508.00
2023-05-25T04:49:03.483Z,505.00
2023-05-25T04:50:03.485Z,504.00
2023-05-25T04:51:03.479Z,506.00
2023-05-25T04:52:03.496Z,500.00
2023-05-25T04:53:03.466Z,510.00
2023-05-25T04:54:02.459Z,506.00
2023-05-25T04:55:03.457Z,507.00
2023-05-25T04:56:03.446Z,506.00
2023-05-25T04:57:02.428Z,509.00
2023-05-25T04:58:03.436Z,503.00
2023-05-25T04:59:03.434Z,504.00
2023-05-25T05:00:02.439Z,503.00
2023-05-25T05:01:03.467Z,508.00
2023-05-25T05:02:02.407Z,503.00
2023-05-25T05:03:02.507Z,507.00
2023-05-25T05:04:02.456Z,506.00
2023-05-25T05:05:02.392Z,510.00
2023-05-25T05:06:03.403Z,506.00
2023-05-25T05:07:03.374Z,507.00
2023-05-25T05:08:02.389Z,506.00
2023-05-25T05:09:03.387Z,506.00
2023-05-25T05:10:03.601Z,507.00
2023-05-25T05:11:03.405Z,507.00
2023-05-25T05:12:02.387Z,508.00
2023-05-25T05:13:02.457Z,509.00
2023-05-25T05:14:02.934Z,507.00
2023-05-25T05:15:03.466Z,508.00
2023-05-25T05:16:02.382Z,505.00
2023-05-25T05:17:03.454Z,503.00
2023-05-25T05:18:03.375Z,506.00
2023-05-25T05:19:03.307Z,508.00
2023-05-25T05:20:02.423Z,506.00
2023-05-25T05:21:03.462Z,500.00
2023-05-25T05:22:03.503Z,510.00
2023-05-25T05:23:03.554Z,507.00
2023-05-25T05:24:03.632Z,506.00
2023-05-25T05:25:03.702Z,504.00
2023-05-25T05:26:02.738Z,503.00
2023-05-25T05:28:02.852Z,504.00
2023-05-25T05:29:03.899Z,507.00
2023-05-25T05:30:02.966Z,504.00
2023-05-25T05:31:04.051Z,505.00
2023-05-25T05:32:03.063Z,504.00
2023-05-25T05:33:03.228Z,499.00
2023-05-25T05:34:03.221Z,503.00
2023-05-25T05:35:04.463Z,498.00
2023-05-25T05:36:04.315Z,500.00
2023-05-25T05:37:04.645Z,500.00
2023-05-25T05:38:04.342Z,498.00
2023-05-25T05:39:03.454Z,500.00
2023-05-25T05:40:03.653Z,500.00
2023-05-25T05:41:04.419Z,502.00
2023-05-25T05:42:04.440Z,509.00
2023-05-25T05:43:04.391Z,508.00
2023-05-25T05:44:03.432Z,501.00
2023-05-25T05:45:04.486Z,500.00
2023-05-25T05:46:05.550Z,503.00
2023-05-25T05:47:03.521Z,500.00
2023-05-25T05:48:03.674Z,505.00
2023-05-25T05:49:04.621Z,513.00
2023-05-25T05:50:03.632Z,537.00
2023-05-25T05:51:04.657Z,554.00
2023-05-25T05:52:03.654Z,574.00
2023-05-25T05:53:04.699Z,571.00
2023-05-25T05:54:03.713Z,576.00
2023-05-25T05:55:04.754Z,582.00
2023-05-25T05:56:03.837Z,571.00
2023-05-25T05:57:04.785Z,551.00
2023-05-25T05:58:04.840Z,546.00
2023-05-25T05:59:04.804Z,542.00
2023-05-25T06:00:04.851Z,540.00
2023-05-25T06:01:03.983Z,534.00
2023-05-25T06:02:03.915Z,530.00
2023-05-25T06:03:04.027Z,533.00
2023-05-25T06:04:04.941Z,536.00
2023-05-25T06:05:04.172Z,535.00
2023-05-25T06:06:05.029Z,536.00
2023-05-25T06:07:05.018Z,539.00
2023-05-25T06:08:05.778Z,546.00
2023-05-25T06:09:05.007Z,541.00
2023-05-25T06:10:04.032Z,521.00
2023-05-25T06:11:04.067Z,517.00
2023-05-25T06:12:05.173Z,518.00
2023-05-25T06:13:05.148Z,523.00
2023-05-25T06:14:04.201Z,517.00
2023-05-25T06:15:05.192Z,530.00
2023-05-25T06:16:05.321Z,525.00
2023-05-25T06:17:04.396Z,533.00
2023-05-25T06:18:05.293Z,526.00
2023-05-25T06:19:05.244Z,520.00
2023-05-25T06:20:04.320Z,515.00
2023-05-25T06:21:04.357Z,518.00
2023-05-25T06:22:05.365Z,523.00
2023-05-25T06:23:04.370Z,519.00
2023-05-25T06:24:05.416Z,515.00
2023-05-25T06:25:05.450Z,525.00
2023-05-25T06:26:05.484Z,522.00
2023-05-25T06:27:05.517Z,518.00
2023-05-25T06:28:05.546Z,514.00
2023-05-25T06:29:04.576Z,508.00
2023-05-25T06:30:04.597Z,508.00
2023-05-25T06:31:04.606Z,500.00
2023-05-25T06:32:05.623Z,500.00
2023-05-25T06:33:04.628Z,505.00
2023-05-25T06:34:04.592Z,501.00
2023-05-25T06:35:04.618Z,507.00
2023-05-25T06:36:05.028Z,502.00
2023-05-25T06:37:05.700Z,501.00
2023-05-25T06:38:05.795Z,508.00
2023-05-25T06:39:04.769Z,502.00
2023-05-25T06:40:04.824Z,500.00
2023-05-25T06:41:04.916Z,500.00
2023-05-25T06:42:05.954Z,505.00
2023-05-25T06:43:04.965Z,501.00
2023-05-25T06:44:05.974Z,507.00
2023-05-25T06:45:05.977Z,500.00
2023-05-25T06:46:06.080Z,500.00
2023-05-25T06:47:06.021Z,513.00
2023-05-25T06:48:06.046Z,530.00
2023-05-25T06:49:06.041Z,524.00
2023-05-25T06:50:05.032Z,525.00
2023-05-25T06:51:06.699Z,561.00
2023-05-25T06:52:06.354Z,591.00
2023-05-25T06:53:06.343Z,585.00
2023-05-25T06:54:05.236Z,586.00
2023-05-25T06:55:06.341Z,1114.00
2023-05-25T06:56:06.496Z,967.00
2023-05-25T06:57:05.963Z,872.00
2023-05-25T06:58:06.349Z,886.00
2023-05-25T06:59:06.378Z,1151.00
2023-05-25T07:00:06.497Z,1156.00
2023-05-25T07:01:12.509Z,1096.00
2023-05-25T07:02:05.384Z,1097.00
2023-05-25T07:03:06.397Z,1080.00
2023-05-25T07:04:06.359Z,1036.00
2023-05-25T07:05:06.378Z,1069.00
2023-05-25T07:06:06.350Z,1072.00
2023-05-25T07:07:06.348Z,1085.00
2023-05-25T07:08:06.353Z,1117.00
2023-05-25T07:09:06.394Z,1142.00
2023-05-25T07:10:06.335Z,1160.00
2023-05-25T07:11:05.335Z,1198.00
2023-05-25T07:12:06.320Z,1213.00
2023-05-25T07:13:06.316Z,1156.00
2023-05-25T07:14:06.310Z,1203.00
2023-05-25T07:15:06.296Z,1206.00
2023-05-25T07:16:06.339Z,1204.00
2023-05-25T07:17:05.292Z,1246.00
2023-05-25T07:18:06.361Z,1248.00
2023-05-25T07:19:06.275Z,1283.00
2023-05-25T07:20:06.471Z,1272.00
2023-05-25T07:21:06.248Z,1283.00
2023-05-25T07:22:05.253Z,1313.00
2023-05-25T07:23:06.267Z,1315.00
2023-05-25T07:24:06.255Z,1326.00
2023-05-25T07:25:06.042Z,1318.00
2023-05-25T07:26:06.149Z,1325.00
2023-05-25T07:27:05.210Z,1343.00
2023-05-25T07:28:05.210Z,1335.00
2023-05-25T07:29:06.190Z,1339.00
2023-05-25T07:30:05.182Z,1356.00
2023-05-25T07:31:06.216Z,1374.00
2023-05-25T07:32:05.177Z,1386.00
2023-05-25T07:33:06.207Z,1392.00
2023-05-25T07:34:05.180Z,1399.00
2023-05-25T07:35:05.167Z,1412.00
2023-05-25T07:36:06.168Z,1446.00
2023-05-25T07:37:06.156Z,1450.00
2023-05-25T07:38:06.143Z,1453.00
2023-05-25T07:39:06.169Z,1486.00
2023-05-25T07:40:05.203Z,1506.00
2023-05-25T07:41:05.278Z,1498.00
2023-05-25T07:42:05.287Z,1497.00
2023-05-25T07:43:07.542Z,1496.00
2023-05-25T07:44:06.354Z,1483.00
2023-05-25T07:45:05.326Z,1511.00
2023-05-25T07:46:06.319Z,1486.00
2023-05-25T07:47:06.398Z,1466.00
2023-05-25T07:48:06.360Z,1461.00
2023-05-25T07:49:05.312Z,1501.00
2023-05-25T07:50:06.287Z,1484.00
2023-05-25T07:51:06.514Z,1514.00
2023-05-25T07:52:06.290Z,1501.00
2023-05-25T07:53:06.266Z,1543.00
2023-05-25T07:54:06.272Z,1524.00
2023-05-25T07:55:06.261Z,1492.00
2023-05-25T07:56:05.493Z,1496.00
2023-05-25T07:57:05.274Z,1481.00
2023-05-25T07:58:05.250Z,1471.00
2023-05-25T07:59:06.220Z,1472.00
2023-05-25T08:00:06.220Z,1460.00
2023-05-25T08:01:06.364Z,1460.00
2023-05-25T08:02:05.274Z,1457.00
2023-05-25T08:03:06.382Z,1452.00
2023-05-25T08:04:06.352Z,1446.00
2023-05-25T08:05:05.313Z,1437.00
2023-05-25T08:06:05.174Z,1430.00
2023-05-25T08:07:05.172Z,1434.00
2023-05-25T08:08:06.189Z,1423.00
2023-05-25T08:09:06.152Z,1421.00
2023-05-25T08:10:05.162Z,1424.00
2023-05-25T08:11:06.163Z,1414.00
2023-05-25T08:12:26.986Z,1404.00
2023-05-25T08:13:06.156Z,1406.00
2023-05-25T08:14:06.114Z,1406.00
2023-05-25T08:15:06.116Z,1405.00
2023-05-25T08:16:06.121Z,1412.00
2023-05-25T08:17:05.145Z,1412.00
2023-05-25T08:18:05.184Z,1408.00
2023-05-25T08:19:06.074Z,1387.00
2023-05-25T08:20:05.226Z,1390.00
2023-05-25T08:21:05.073Z,1388.00
2023-05-25T08:22:06.070Z,1390.00
2023-05-25T08:23:05.059Z,1386.00
2023-05-25T08:24:06.075Z,1379.00
2023-05-25T08:25:06.058Z,1377.00
2023-05-25T08:26:20.307Z,1379.00
2023-05-25T08:27:06.045Z,1381.00
2023-05-25T08:28:06.018Z,1382.00
2023-05-25T08:29:06.106Z,1381.00
2023-05-25T08:30:06.148Z,1377.00
2023-05-25T08:31:06.018Z,1376.00
2023-05-25T08:32:04.992Z,1376.00
2023-05-25T08:33:05.986Z,1356.00
2023-05-25T08:34:05.968Z,1331.00
2023-05-25T08:35:05.973Z,1306.00
2023-05-25T08:36:05.953Z,1282.00
2023-05-25T08:37:05.965Z,1274.00
2023-05-25T08:38:05.936Z,1274.00
2023-05-25T08:39:05.951Z,1207.00
2023-05-25T08:40:05.928Z,1218.00
2023-05-25T08:41:05.915Z,1192.00
2023-05-25T08:42:05.027Z,1175.00
2023-05-25T08:43:05.896Z,1028.00
2023-05-25T08:44:05.900Z,984.00
2023-05-25T08:45:05.920Z,788.00
2023-05-25T08:46:05.883Z,783.00
2023-05-25T08:47:04.872Z,855.00
2023-05-25T08:48:05.983Z,985.00
2023-05-25T08:49:05.920Z,940.00
2023-05-25T08:50:04.874Z,920.00
2023-05-25T08:51:04.853Z,872.00
2023-05-25T08:52:05.872Z,812.00
2023-05-25T08:53:05.832Z,867.00
2023-05-25T08:54:05.841Z,940.00
2023-05-25T08:55:05.819Z,764.00
2023-05-25T08:56:05.825Z,652.00
2023-05-25T08:57:06.023Z,584.00
2023-05-25T08:58:05.796Z,557.00
2023-05-25T08:59:06.981Z,594.00
2023-05-25T09:00:05.784Z,622.00
2023-05-25T09:01:05.811Z,634.00
2023-05-25T09:02:05.861Z,663.00
2023-05-25T09:03:04.982Z,712.00
2023-05-25T09:04:04.915Z,761.00
2023-05-25T09:05:05.902Z,744.00
2023-05-25T09:06:04.917Z,652.00
2023-05-25T09:07:10.800Z,710.00
2023-05-25T09:08:05.918Z,659.00
2023-05-25T09:09:05.939Z,689.00
2023-05-25T09:10:05.916Z,704.00
2023-05-25T09:11:04.945Z,672.00
2023-05-25T09:12:05.896Z,681.00
2023-05-25T09:13:19.840Z,705.00
2023-05-25T09:14:05.884Z,707.00
2023-05-25T09:15:05.899Z,714.00
2023-05-25T09:16:05.913Z,725.00
2023-05-25T09:17:05.878Z,725.00
2023-05-25T09:18:05.889Z,739.00
2023-05-25T09:19:05.859Z,741.00
2023-05-25T09:20:05.918Z,727.00
2023-05-25T09:21:05.927Z,681.00
2023-05-25T09:22:14.745Z,678.00
2023-05-25T09:23:05.822Z,666.00
2023-05-25T09:24:04.822Z,684.00
2023-05-25T09:25:04.809Z,695.00
2023-05-25T09:26:05.797Z,712.00
2023-05-25T09:27:05.801Z,694.00
2023-05-25T09:28:24.652Z,697.00
2023-05-25T09:29:05.775Z,650.00
2023-05-25T09:30:04.797Z,662.00
2023-05-25T09:31:04.790Z,661.00
2023-05-25T09:32:05.839Z,672.00
2023-05-25T09:33:05.785Z,675.00
2023-05-25T09:34:05.735Z,684.00
2023-05-25T09:35:05.744Z,682.00
2023-05-25T09:36:04.761Z,663.00
2023-05-25T09:37:05.831Z,662.00
2023-05-25T09:38:04.853Z,638.00
2023-05-25T09:39:05.995Z,653.00
2023-05-25T09:40:05.693Z,641.00
2023-05-25T09:41:05.696Z,651.00
2023-05-25T09:42:04.681Z,653.00
2023-05-25T09:43:05.704Z,662.00
2023-05-25T09:44:10.926Z,658.00
2023-05-25T09:45:05.664Z,654.00
2023-05-25T09:46:05.728Z,638.00
2023-05-25T09:47:06.586Z,638.00
2023-05-25T09:48:05.707Z,639.00
2023-05-25T09:49:04.681Z,593.00
2023-05-25T09:50:04.631Z,606.00
2023-05-25T09:51:05.631Z,624.00
2023-05-25T09:52:05.037Z,636.00
2023-05-25T09:53:05.636Z,617.00
2023-05-25T09:54:05.631Z,643.00
2023-05-25T09:55:04.615Z,649.00
2023-05-25T09:56:05.599Z,693.00
2023-05-25T09:57:04.621Z,677.00
2023-05-25T09:58:04.592Z,713.00
2023-05-25T09:59:04.583Z,785.00
2023-05-25T10:00:05.585Z,797.00
2023-05-25T10:01:04.644Z,771.00
2023-05-25T10:02:04.637Z,799.00
2023-05-25T10:03:05.619Z,848.00
2023-05-25T10:04:05.700Z,891.00
2023-05-25T10:05:05.801Z,815.00
2023-05-25T10:06:05.727Z,803.00
2023-05-25T10:07:05.814Z,804.00
2023-05-25T10:08:05.874Z,890.00
2023-05-25T10:09:05.893Z,900.00
2023-05-25T10:10:05.971Z,1711.00
2023-05-25T10:11:05.992Z,1412.00
2023-05-25T10:12:05.057Z,1268.00
2023-05-25T10:13:05.111Z,1138.00
2023-05-25T10:14:06.184Z,1062.00
2023-05-25T10:15:06.222Z,1009.00
2023-05-25T10:16:06.315Z,1003.00
2023-05-25T10:17:05.316Z,941.00
2023-05-25T10:18:06.380Z,942.00
2023-05-25T10:19:06.416Z,926.00
2023-05-25T10:20:05.563Z,958.00
2023-05-25T10:21:06.719Z,974.00
2023-05-25T10:22:06.553Z,956.00
2023-05-25T10:23:06.581Z,960.00
2023-05-25T10:24:06.639Z,936.00
2023-05-25T10:25:06.667Z,982.00
2023-05-25T10:26:06.721Z,975.00
2023-05-25T10:27:18.501Z,1013.00
2023-05-25T10:28:06.762Z,1013.00
2023-05-25T10:29:06.730Z,978.00
2023-05-25T10:30:06.738Z,977.00
2023-05-25T10:31:05.743Z,997.00
2023-05-25T10:32:06.749Z,971.00
2023-05-25T10:33:06.779Z,977.00
2023-05-25T10:34:06.729Z,976.00
2023-05-25T10:35:05.714Z,924.00
2023-05-25T10:37:05.705Z,961.00
2023-05-25T10:38:06.661Z,981.00
2023-05-25T10:39:07.138Z,1014.00
2023-05-25T10:40:06.683Z,983.00
2023-05-25T10:41:05.650Z,970.00
2023-05-25T10:42:06.663Z,943.00
2023-05-25T10:43:06.628Z,906.00
2023-05-25T10:44:07.541Z,937.00
2023-05-25T10:45:06.640Z,722.00
2023-05-25T10:46:06.611Z,720.00
2023-05-25T10:47:07.070Z,788.00
2023-05-25T10:48:05.633Z,761.00
2023-05-25T10:49:05.609Z,802.00
2023-05-25T10:50:06.599Z,828.00
2023-05-25T10:51:05.578Z,802.00
2023-05-25T10:52:06.591Z,789.00
2023-05-25T10:53:06.624Z,826.00
2023-05-25T10:54:06.556Z,812.00
2023-05-25T10:55:06.577Z,825.00
2023-05-25T10:56:06.701Z,870.00
2023-05-25T10:57:06.678Z,888.00
2023-05-25T10:58:06.716Z,901.00
2023-05-25T10:59:06.765Z,915.00
2023-05-25T11:00:05.806Z,918.00
2023-05-25T11:01:05.923Z,953.00
2023-05-25T11:02:06.830Z,924.00
2023-05-25T11:03:06.994Z,925.00
2023-05-25T11:04:05.971Z,889.00
2023-05-25T11:05:07.002Z,946.00
2023-05-25T11:06:07.045Z,962.00
2023-05-25T11:07:07.062Z,963.00
2023-05-25T11:08:08.743Z,969.00
2023-05-25T11:09:07.160Z,1011.00
2023-05-25T11:10:07.085Z,1020.00
2023-05-25T11:11:07.103Z,995.00
2023-05-25T11:12:06.098Z,999.00
2023-05-25T11:13:07.088Z,999.00
2023-05-25T11:14:07.082Z,1003.00
2023-05-25T11:15:07.071Z,1027.00
2023-05-25T11:16:06.070Z,1027.00
2023-05-25T11:17:07.154Z,1019.00
2023-05-25T11:18:07.096Z,1055.00
2023-05-25T11:19:06.036Z,1094.00
2023-05-25T11:20:07.049Z,1115.00
2023-05-25T11:21:07.042Z,1078.00
2023-05-25T11:22:07.283Z,1007.00
2023-05-25T11:23:06.028Z,927.00
2023-05-25T11:24:06.028Z,953.00
2023-05-25T11:25:06.031Z,977.00
2023-05-25T11:26:06.992Z,1010.00
2023-05-25T11:27:06.998Z,991.00
2023-05-25T11:28:07.016Z,978.00
2023-05-25T11:29:06.972Z,1006.00
2023-05-25T11:30:06.965Z,987.00
2023-05-25T11:31:06.981Z,989.00
2023-05-25T11:32:05.941Z,1035.00
2023-05-25T11:33:06.978Z,1004.00
2023-05-25T11:34:06.943Z,1013.00
2023-05-25T11:35:06.932Z,984.00
2023-05-25T11:36:05.948Z,983.00
2023-05-25T11:37:06.948Z,981.00
2023-05-25T11:38:07.074Z,1029.00
2023-05-25T11:39:11.658Z,1070.00
2023-05-25T11:40:06.898Z,1072.00
2023-05-25T11:41:06.924Z,1075.00
2023-05-25T11:42:07.018Z,1073.00
2023-05-25T11:43:06.877Z,1080.00
2023-05-25T11:44:06.893Z,1089.00
2023-05-25T11:45:06.855Z,1090.00
2023-05-25T11:46:06.910Z,1084.00
2023-05-25T11:47:06.846Z,1078.00
2023-05-25T11:48:06.901Z,1091.00
2023-05-25T11:49:05.839Z,1080.00
2023-05-25T11:50:05.848Z,1076.00
2023-05-25T11:51:05.836Z,1075.00
2023-05-25T11:52:06.828Z,1078.00
2023-05-25T11:53:06.811Z,1070.00
2023-05-25T11:54:06.809Z,1054.00
2023-05-25T11:55:06.802Z,1052.00
2023-05-25T11:56:08.475Z,1073.00
2023-05-25T11:57:06.848Z,1083.00
2023-05-25T11:58:06.801Z,1099.00
2023-05-25T11:59:06.805Z,1081.00
2023-05-25T12:00:06.800Z,1070.00
2023-05-25T12:01:05.776Z,1049.00
2023-05-25T12:02:05.785Z,1055.00
2023-05-25T12:03:06.869Z,1101.00
2023-05-25T12:04:06.857Z,1049.00
2023-05-25T12:05:05.764Z,1070.00
2023-05-25T12:06:06.750Z,1066.00
2023-05-25T12:07:06.727Z,1066.00
2023-05-25T12:08:05.742Z,1035.00
2023-05-25T12:09:06.723Z,1068.00
2023-05-25T12:10:05.717Z,1065.00
2023-05-25T12:11:06.725Z,1073.00
2023-05-25T12:12:07.577Z,1042.00
2023-05-25T12:13:05.722Z,1063.00
2023-05-25T12:14:06.700Z,1063.00
2023-05-25T12:15:05.673Z,1066.00
2023-05-25T12:16:05.669Z,1026.00
2023-05-25T12:17:05.705Z,1022.00
2023-05-25T12:18:05.747Z,1023.00
2023-05-25T12:19:06.670Z,1022.00
2023-05-25T12:20:06.657Z,1060.00
2023-05-25T12:21:05.645Z,1024.00
2023-05-25T12:22:06.723Z,1043.00
2023-05-25T12:23:06.797Z,1018.00
2023-05-25T12:24:06.294Z,1049.00
2023-05-25T12:25:06.865Z,1014.00
2023-05-25T12:26:06.929Z,1019.00
2023-05-25T12:27:06.987Z,1030.00